Time;durP1;ratioP1;P1;durP2;ratioP2;P2;SDS_P1;SDS_P2;PMS_P1;PMS_P2;Temp;Humidity;BMP_temperature;BMP_pressure;BME280_temperature;BME280_humidity;BME280_pressure;Samples;Min_cycle;Max_cycle;Signal;HPM_P1;HPM_P2
2021/06/14 00:00:49;;;;;;;10.98;8.50;;;;;;;17.24;93.44;100027.61;1691199;84;21235;-57
2021/06/14 00:03:55;;;;;;;11.30;8.25;;;;;;;17.21;93.37;100030.83;1690761;84;21239;-57
2021/06/14 00:07:00;;;;;;;11.55;8.90;;;;;;;17.19;93.36;100035.21;1691575;85;21772;-57
2021/06/14 00:10:07;;;;;;;11.85;9.10;;;;;;;17.16;93.33;100032.91;1691618;84;21409;-55
2021/06/14 00:13:15;;;;;;;10.10;9.03;;;;;;;17.14;93.29;100031.45;1691564;85;21296;-55
2021/06/14 00:16:20;;;;;;;11.30;8.55;;;;;;;17.10;93.19;100031.05;1691759;84;21259;-55
2021/06/14 00:19:26;;;;;;;13.38;8.73;;;;;;;17.08;93.08;100035.09;1692372;84;21748;-56
2021/06/14 00:22:32;;;;;;;11.25;8.60;;;;;;;17.04;93.01;100031.96;1691735;84;21224;-56
2021/06/14 00:25:38;;;;;;;11.43;8.70;;;;;;;17.01;92.90;100034.33;1691879;84;21235;-56
2021/06/14 00:28:46;;;;;;;12.85;8.85;;;;;;;16.96;92.83;100040.54;1691742;84;21231;-55
2021/06/14 00:31:53;;;;;;;12.98;8.85;;;;;;;16.94;92.94;100045.97;1692199;84;21227;-55
2021/06/14 00:34:58;;;;;;;13.55;10.30;;;;;;;16.92;93.01;100037.07;1692021;84;21298;-55
2021/06/14 00:38:06;;;;;;;13.35;10.90;;;;;;;16.90;92.78;100040.59;1704996;83;21211;-55
2021/06/14 00:41:13;;;;;;;13.18;10.25;;;;;;;16.86;92.52;100047.63;1691833;85;21247;-56
2021/06/14 00:44:20;;;;;;;14.43;10.93;;;;;;;16.80;92.42;100045.76;1692103;84;21215;-54
2021/06/14 00:47:28;;;;;;;16.93;11.65;;;;;;;16.77;92.40;100051.74;1704222;83;21385;-54
2021/06/14 00:50:51;;;;;;;16.02;11.08;;;;;;;16.73;92.45;100047.74;1701763;83;21296;-55
2021/06/14 00:53:58;;;;;;;14.40;10.15;;;;;;;16.69;92.34;100045.09;1704334;84;21353;-55
2021/06/14 00:57:04;;;;;;;13.48;10.70;;;;;;;16.64;92.28;100054.06;1691723;85;21357;-55
2021/06/14 01:00:09;;;;;;;15.03;11.08;;;;;;;16.60;92.15;100056.12;1704207;84;21267;-55
2021/06/14 01:03:17;;;;;;;19.20;10.90;;;;;;;16.54;92.15;100062.55;1691839;85;21243;-56
2021/06/14 01:06:23;;;;;;;15.85;11.08;;;;;;;16.49;92.36;100064.56;1662377;86;21389;-55
2021/06/14 01:09:28;;;;;;;18.37;10.78;;;;;;;16.47;92.53;100068.63;1662435;86;21377;-54
2021/06/14 01:12:37;;;;;;;14.40;11.00;;;;;;;16.44;92.64;100067.13;1662481;86;21362;-55
2021/06/14 01:15:50;;;;;;;13.85;10.03;;;;;;;16.46;92.69;100066.95;1662462;86;21223;-54
2021/06/14 01:19:21;;;;;;;16.00;10.58;;;;;;;16.42;92.61;100079.80;1662508;86;21235;-56
2021/06/14 01:22:34;;;;;;;18.25;10.43;;;;;;;16.38;92.45;100074.37;1662537;86;21365;-56
2021/06/14 01:25:59;;;;;;;15.55;11.53;;;;;;;16.36;92.50;100077.06;1662776;85;21243;-56
2021/06/14 01:29:07;;;;;;;20.10;11.73;;;;;;;16.32;92.66;100082.17;1662429;86;21374;-55
2021/06/14 01:32:15;;;;;;;20.12;11.57;;;;;;;16.31;92.94;100080.48;1662172;85;21405;-54
2021/06/14 01:35:24;;;;;;;19.30;11.15;;;;;;;16.30;93.06;100082.92;1661836;86;21409;-55
2021/06/14 01:38:33;;;;;;;14.65;11.60;;;;;;;16.31;93.17;100088.77;1662400;86;21378;-54
2021/06/14 01:41:39;;;;;;;16.30;11.10;;;;;;;16.29;93.16;100090.05;1662511;86;21470;-54
2021/06/14 01:44:44;;;;;;;19.45;11.05;;;;;;;16.27;92.95;100086.12;1662931;86;21627;-55
2021/06/14 01:47:50;;;;;;;16.07;10.93;;;;;;;16.23;92.90;100082.12;1662987;86;21224;-55
2021/06/14 01:50:57;;;;;;;14.55;10.68;;;;;;;16.23;92.92;100084.02;1663100;86;21251;-54
2021/06/14 01:54:05;;;;;;;12.73;10.08;;;;;;;16.21;92.83;100083.39;1662900;86;21378;-54
2021/06/14 01:57:17;;;;;;;14.20;10.38;;;;;;;16.21;92.74;100094.44;1663051;85;21204;-54
2021/06/14 02:00:34;;;;;;;13.60;9.45;;;;;;;16.16;92.48;100095.09;1663136;86;21283;-55
2021/06/14 02:03:57;;;;;;;15.72;10.03;;;;;;;16.13;92.35;100096.92;1662838;86;21362;-55
2021/06/14 02:07:07;;;;;;;17.17;11.43;;;;;;;16.10;92.24;100104.78;1695610;84;21215;-54
2021/06/14 02:10:13;;;;;;;15.50;10.08;;;;;;;16.10;92.53;100108.41;1719237;83;21388;-54
2021/06/14 02:13:18;;;;;;;15.63;9.65;;;;;;;16.11;92.79;100111.47;1713942;84;21196;-54
2021/06/14 02:16:27;;;;;;;15.10;10.15;;;;;;;16.14;92.94;100117.11;1713863;84;21242;-55
2021/06/14 02:19:32;;;;;;;16.30;10.78;;;;;;;16.16;92.96;100114.43;1713851;83;21215;-54
2021/06/14 02:22:39;;;;;;;14.85;11.43;;;;;;;16.19;92.93;100121.42;1719809;83;21210;-55
2021/06/14 02:25:46;;;;;;;15.55;9.95;;;;;;;16.22;92.97;100125.98;1713935;83;21318;-55
2021/06/14 02:28:54;;;;;;;15.23;10.30;;;;;;;16.24;92.85;100129.38;1713901;84;21191;-55
2021/06/14 02:31:59;;;;;;;16.73;11.12;;;;;;;16.27;92.96;100127.55;1719255;83;21388;-55
2021/06/14 02:35:06;;;;;;;16.40;11.35;;;;;;;16.31;93.15;100133.50;1689344;85;21235;-55
2021/06/14 02:38:15;;;;;;;16.07;11.18;;;;;;;16.34;93.51;100138.58;1714018;84;21204;-54
2021/06/14 02:41:20;;;;;;;17.75;11.45;;;;;;;16.39;93.81;100136.84;1714006;84;21238;-57
2021/06/14 02:44:30;;;;;;;17.00;12.80;;;;;;;16.46;94.04;100129.12;1714080;84;21208;-57
2021/06/14 02:47:36;;;;;;;19.40;13.70;;;;;;;16.51;94.09;100137.05;1719631;83;21311;-55
2021/06/14 02:50:43;;;;;;;25.17;13.50;;;;;;;16.56;94.09;100140.52;1714077;84;21287;-54
2021/06/14 02:54:03;;;;;;;19.30;12.95;;;;;;;16.60;94.28;100137.66;1719719;83;21261;-55
2021/06/14 02:57:04;;;;;;;26.10;13.90;;;;;;;16.66;94.32;100147.30;1714250;84;21215;-55
2021/06/14 03:00:13;;;;;;;17.45;12.40;;;;;;;16.74;94.55;100147.03;1719629;83;21376;-54
2021/06/14 03:03:20;;;;;;;17.65;12.10;;;;;;;16.85;94.58;100149.63;1713836;84;21240;-57
2021/06/14 03:06:27;;;;;;;16.67;11.95;;;;;;;16.94;94.48;100157.95;1715816;82;21361;-55
2021/06/14 03:09:35;;;;;;;15.88;11.45;;;;;;;17.03;94.35;100156.64;1678687;85;21390;-57
2021/06/14 03:12:41;;;;;;;14.83;10.95;;;;;;;17.12;94.11;100161.69;1704476;84;21354;-57
2021/06/14 03:15:48;;;;;;;15.55;10.58;;;;;;;17.21;93.84;100158.09;1678877;85;21219;-56
2021/06/14 03:18:56;;;;;;;15.78;11.12;;;;;;;17.30;93.62;100156.77;1704214;83;21265;-56
2021/06/14 03:22:04;;;;;;;16.77;11.18;;;;;;;17.38;93.34;100154.55;1679051;85;21227;-56
2021/06/14 03:25:09;;;;;;;14.68;9.70;;;;;;;17.47;93.06;100161.52;1704272;83;21349;-56
2021/06/14 03:28:15;;;;;;;14.75;9.75;;;;;;;17.56;92.80;100159.34;1692438;84;21792;-58
2021/06/14 03:31:23;;;;;;;13.28;10.32;;;;;;;17.63;92.45;100163.73;1692521;84;21242;-58
2021/06/14 03:34:29;;;;;;;11.80;9.55;;;;;;;17.72;92.11;100172.61;1704090;83;21223;-58
2021/06/14 03:37:37;;;;;;;18.45;10.53;;;;;;;17.76;91.95;100157.22;1691572;84;21227;-57
2021/06/14 03:40:43;;;;;;;9.73;8.35;;;;;;;17.85;91.87;100163.63;1704148;83;21393;-57
2021/06/14 03:43:50;;;;;;;14.60;9.15;;;;;;;17.93;91.49;100167.19;1692376;84;21390;-58
2021/06/14 03:46:55;;;;;;;11.18;8.85;;;;;;;17.99;91.31;100171.28;1691554;84;21215;-57
2021/06/14 03:50:00;;;;;;;10.25;8.28;;;;;;;18.07;91.03;100176.52;1691515;84;21299;-57
2021/06/14 03:53:06;;;;;;;10.93;8.43;;;;;;;18.15;90.70;100169.83;1691628;84;21262;-57
2021/06/14 03:56:15;;;;;;;9.58;7.85;;;;;;;18.22;90.38;100170.05;1692007;84;21303;-57
2021/06/14 03:59:21;;;;;;;11.85;8.43;;;;;;;18.31;90.24;100180.31;1691695;84;21272;-57
2021/06/14 04:02:27;;;;;;;11.35;7.97;;;;;;;18.39;90.01;100178.12;1692371;84;21235;-59
2021/06/14 04:05:35;;;;;;;9.20;7.90;;;;;;;18.48;89.68;100182.80;1691828;85;21243;-57
2021/06/14 04:08:45;;;;;;;9.55;7.60;;;;;;;18.56;89.35;100180.56;1688851;83;21311;-57
2021/06/14 04:11:51;;;;;;;10.60;7.85;;;;;;;18.65;89.04;100181.94;1692561;85;21637;-56
2021/06/14 04:14:57;;;;;;;13.48;8.00;;;;;;;18.74;88.40;100179.70;1693332;85;21240;-58
2021/06/14 04:18:02;;;;;;;16.77;8.25;;;;;;;18.81;87.96;100179.91;1693214;85;21224;-58
2021/06/14 04:21:08;;;;;;;12.63;8.10;;;;;;;18.92;87.77;100181.03;1692901;85;21267;-57
2021/06/14 04:24:15;;;;;;;11.38;7.75;;;;;;;18.99;87.19;100184.05;1692896;85;21295;-57
2021/06/14 04:27:20;;;;;;;13.32;8.00;;;;;;;19.05;86.46;100191.42;1693245;84;21267;-57
2021/06/14 04:30:26;;;;;;;11.73;8.25;;;;;;;19.13;86.00;100191.62;1692717;85;21275;-59
2021/06/14 04:33:32;;;;;;;10.88;7.42;;;;;;;19.19;85.77;100192.06;1692948;85;21207;-58
2021/06/14 04:36:39;;;;;;;14.10;8.75;;;;;;;19.26;85.71;100188.66;1692834;85;21219;-58
2021/06/14 04:39:44;;;;;;;13.10;9.50;;;;;;;19.34;85.63;100195.30;1692883;84;21239;-58
2021/06/14 04:42:53;;;;;;;12.15;8.73;;;;;;;19.41;85.49;100191.03;1661221;85;21259;-58
2021/06/14 04:45:59;;;;;;;15.75;7.83;;;;;;;19.49;85.05;100191.52;1624104;88;21227;-58
2021/06/14 04:49:07;;;;;;;11.97;8.75;;;;;;;19.59;85.04;100196.48;1642606;87;21276;-58
2021/06/14 04:52:14;;;;;;;19.10;9.90;;;;;;;19.68;84.99;100201.45;1667789;84;21223;-57
2021/06/14 04:55:18;;;;;;;15.35;9.03;;;;;;;19.76;84.94;100192.77;1667850;85;21425;-56
2021/06/14 04:58:28;;;;;;;17.12;11.53;;;;;;;19.85;84.42;100204.39;1664544;86;21419;-57
2021/06/14 05:01:34;;;;;;;19.80;11.55;;;;;;;19.90;83.95;100204.52;1677735;84;21792;-57
2021/06/14 05:04:41;;;;;;;20.23;13.45;;;;;;;19.96;83.54;100200.77;1664686;86;21250;-53
2021/06/14 05:07:50;;;;;;;23.95;14.28;;;;;;;20.02;83.38;100199.80;1688789;85;21239;-53
2021/06/14 05:10:56;;;;;;;21.93;13.40;;;;;;;20.11;83.13;100208.06;1697800;84;22280;-52
2021/06/14 05:14:05;;;;;;;18.15;12.98;;;;;;;20.18;82.80;100215.25;1674518;85;21739;-53
2021/06/14 05:17:16;;;;;;;21.37;13.55;;;;;;;20.26;82.47;100218.20;1698778;84;21271;-54
2021/06/14 05:20:22;;;;;;;17.25;12.07;;;;;;;20.33;82.26;100221.16;1700780;84;21304;-54
2021/06/14 05:23:29;;;;;;;17.82;12.43;;;;;;;20.43;82.27;100224.17;1686696;84;21274;-54
2021/06/14 05:26:37;;;;;;;17.77;11.83;;;;;;;20.52;82.18;100228.27;1682317;85;21241;-57
2021/06/14 05:29:48;;;;;;;17.48;11.93;;;;;;;20.60;82.20;100229.81;1685549;84;21283;-56
2021/06/14 05:32:58;;;;;;;18.85;11.70;;;;;;;20.69;81.82;100225.02;1658610;86;21244;-55
2021/06/14 05:36:13;;;;;;;21.25;12.23;;;;;;;20.79;81.68;100224.39;1675733;84;21268;-55
2021/06/14 05:39:19;;;;;;;16.45;12.07;;;;;;;20.87;81.76;100225.41;1675819;85;21208;-55
2021/06/14 05:42:31;;;;;;;20.30;12.18;;;;;;;20.97;81.54;100230.37;1680105;85;21232;-55
2021/06/14 05:45:38;;;;;;;22.90;12.25;;;;;;;21.05;81.25;100230.84;1685935;84;21295;-57
2021/06/14 05:48:43;;;;;;;16.93;11.40;;;;;;;21.14;80.87;100241.87;1685952;85;21294;-56
2021/06/14 05:51:51;;;;;;;17.52;12.20;;;;;;;21.23;80.74;100244.55;1705684;84;21244;-57
2021/06/14 05:54:59;;;;;;;21.70;11.70;;;;;;;21.35;80.59;100241.72;1699830;84;21235;-58
2021/06/14 05:58:05;;;;;;;28.25;21.95;;;;;;;21.43;80.12;100247.75;1683188;85;21284;-58
2021/06/14 06:01:16;;;;;;;20.00;13.55;;;;;;;21.53;79.71;100253.48;1710558;83;21237;-57
2021/06/14 06:04:22;;;;;;;17.67;11.05;;;;;;;21.62;79.62;100251.16;1710929;83;21197;-58
2021/06/14 06:07:26;;;;;;;22.65;17.57;;;;;;;21.73;79.81;100251.63;1711235;82;21264;-57
2021/06/14 06:10:34;;;;;;;14.20;9.80;;;;;;;21.83;79.74;100242.10;1709847;83;21713;-56
2021/06/14 06:13:43;;;;;;;18.75;10.15;;;;;;;21.91;78.74;100250.05;1710404;83;21247;-59
2021/06/14 06:16:49;;;;;;;16.97;9.75;;;;;;;22.00;78.43;100247.13;1713014;83;22315;-57
2021/06/14 06:19:55;;;;;;;16.90;9.78;;;;;;;22.06;78.17;100249.75;1659968;85;21695;-58
2021/06/14 06:23:04;;;;;;;15.63;9.03;;;;;;;22.13;78.03;100246.80;1709940;82;21261;-58
2021/06/14 06:26:13;;;;;;;14.45;8.83;;;;;;;22.17;77.26;100244.63;1735665;82;21259;-56
2021/06/14 06:29:20;;;;;;;15.68;8.83;;;;;;;22.26;77.66;100249.78;1718970;83;21215;-56
2021/06/14 06:32:29;;;;;;;11.93;8.20;;;;;;;22.36;77.69;100252.74;1681207;84;21232;-57
2021/06/14 06:35:38;;;;;;;11.20;7.47;;;;;;;22.46;77.31;100251.48;1683704;83;21409;-56
2021/06/14 06:38:53;;;;;;;12.82;7.15;;;;;;;22.55;76.41;100254.18;1703947;84;21209;-58
2021/06/14 06:42:03;;;;;;;7.60;6.27;;;;;;;22.64;75.83;100254.02;1704060;83;21397;-57
2021/06/14 06:45:09;;;;;;;9.88;6.20;;;;;;;22.70;75.57;100258.56;1704960;83;21243;-58
2021/06/14 06:48:15;;;;;;;10.18;6.65;;;;;;;22.77;75.04;100262.03;1704173;83;21235;-56
2021/06/14 06:51:21;;;;;;;10.63;5.37;;;;;;;22.82;74.89;100270.45;1704296;84;21227;-57
2021/06/14 06:54:27;;;;;;;9.48;5.03;;;;;;;22.89;74.85;100271.97;1705190;82;21843;-57
2021/06/14 06:57:34;;;;;;;6.72;4.70;;;;;;;22.97;74.31;100274.86;1692921;82;21206;-58
2021/06/14 07:00:40;;;;;;;9.10;4.78;;;;;;;23.05;74.14;100277.20;1708887;82;21342;-58
2021/06/14 07:03:51;;;;;;;9.90;4.78;;;;;;;23.13;73.59;100283.19;1704512;82;21243;-57
2021/06/14 07:06:57;;;;;;;7.30;4.53;;;;;;;23.20;73.73;100285.75;1697211;83;21737;-59
2021/06/14 07:10:06;;;;;;;7.58;4.72;;;;;;;23.29;72.97;100287.04;1681286;84;21254;-59
2021/06/14 07:13:16;;;;;;;10.93;5.33;;;;;;;23.36;72.59;100289.92;1710656;82;21223;-59
2021/06/14 07:16:26;;;;;;;7.28;4.72;;;;;;;23.43;72.82;100296.70;1686752;83;21297;-56
2021/06/14 07:19:35;;;;;;;7.40;5.12;;;;;;;23.51;72.69;100295.70;1678150;84;21227;-55
2021/06/14 07:22:41;;;;;;;7.12;4.17;;;;;;;23.58;70.93;100302.45;1684374;83;21408;-55
2021/06/14 07:25:46;;;;;;;8.95;4.90;;;;;;;23.61;70.73;100304.72;1689352;83;21233;-55
2021/06/14 07:28:51;;;;;;;7.12;4.60;;;;;;;23.66;70.54;100300.59;1690140;84;21661;-53
2021/06/14 07:31:58;;;;;;;9.45;5.20;;;;;;;23.71;69.88;100309.03;1685752;83;21342;-56
2021/06/14 07:35:04;;;;;;;10.65;5.22;;;;;;;23.77;70.03;100314.97;1711375;83;21238;-59
2021/06/14 07:38:14;;;;;;;7.97;5.03;;;;;;;23.85;70.82;100313.09;1693071;84;21214;-59
2021/06/14 07:41:21;;;;;;;13.15;4.62;;;;;;;23.93;70.63;100319.61;1704562;84;21273;-58
2021/06/14 07:44:26;;;;;;;13.08;5.05;;;;;;;24.01;70.96;100320.56;1702958;84;21199;-57
2021/06/14 07:47:36;;;;;;;10.10;4.62;;;;;;;24.10;70.52;100324.56;1713485;82;21214;-58
2021/06/14 07:50:38;;;;;;;6.33;4.28;;;;;;;24.17;70.06;100319.60;1676330;84;21235;-58
2021/06/14 07:53:49;;;;;;;8.80;4.65;;;;;;;24.22;68.81;100319.66;1660196;85;21210;-58
2021/06/14 07:56:52;;;;;;;8.40;5.15;;;;;;;24.25;68.02;100324.72;1678593;84;21206;-56
2021/06/14 08:00:08;;;;;;;5.87;4.35;;;;;;;24.31;68.28;100329.81;1677388;84;21799;-59
2021/06/14 08:03:24;;;;;;;10.15;4.92;;;;;;;24.37;68.08;100326.77;1692886;84;21207;-55
2021/06/14 08:06:29;;;;;;;13.53;5.58;;;;;;;24.43;67.02;100327.12;1704789;84;21227;-55
2021/06/14 08:09:37;;;;;;;9.00;4.83;;;;;;;24.49;66.85;100333.04;1694624;84;21238;-54
2021/06/14 08:12:47;;;;;;;10.50;5.33;;;;;;;24.57;67.11;100334.49;1688466;82;21232;-58
2021/06/14 08:15:53;;;;;;;6.87;3.87;;;;;;;24.67;67.21;100332.63;1703925;83;21199;-57
2021/06/14 08:25:27;;;;;;;5.45;3.95;;;;;;;24.93;64.29;100338.70;1700181;83;21877;-58
2021/06/14 08:28:36;;;;;;;6.20;4.22;;;;;;;24.99;64.86;100341.82;1714811;83;21819;-57
2021/06/14 08:31:45;;;;;;;8.38;3.60;;;;;;;25.05;64.13;100337.92;1697144;83;21235;-56
2021/06/14 08:34:50;;;;;;;6.53;4.20;;;;;;;25.16;63.99;100336.05;1671644;86;21250;-54
2021/06/14 08:37:57;;;;;;;5.03;3.47;;;;;;;25.34;63.58;100344.58;1686132;85;21264;-55
2021/06/14 08:41:03;;;;;;;5.45;3.05;;;;;;;25.46;63.04;100347.43;1687317;83;21380;-55
2021/06/14 08:44:12;;;;;;;4.70;3.08;;;;;;;25.56;61.56;100341.84;1714959;83;21241;-55
2021/06/14 08:47:16;;;;;;;4.92;2.92;;;;;;;25.67;61.39;100338.54;1677034;85;21223;-53
2021/06/14 08:50:24;;;;;;;5.95;2.87;;;;;;;25.71;59.35;100347.52;1656655;85;21991;-55
2021/06/14 08:53:30;;;;;;;6.10;2.67;;;;;;;25.72;58.93;100344.16;1717747;83;21742;-54
2021/06/14 08:56:43;;;;;;;3.87;3.15;;;;;;;25.73;59.23;100353.70;1715861;83;21217;-56
2021/06/14 08:59:51;;;;;;;5.12;3.05;;;;;;;25.80;59.96;100354.85;1713200;83;21405;-56
2021/06/14 09:02:57;;;;;;;3.20;2.35;;;;;;;25.92;58.16;100348.42;1708636;83;21184;-56
2021/06/14 09:06:04;;;;;;;7.45;2.60;;;;;;;25.98;57.49;100363.59;1677108;85;21221;-58
2021/06/14 09:09:12;;;;;;;4.30;2.70;;;;;;;26.07;57.76;100369.52;1714112;83;21230;-58
2021/06/14 09:12:19;;;;;;;3.45;2.40;;;;;;;26.13;55.75;100365.63;1713754;83;21584;-55
2021/06/14 09:15:25;;;;;;;5.42;2.37;;;;;;;26.17;56.27;100365.34;1716040;83;21197;-56
2021/06/14 09:18:33;;;;;;;7.37;3.05;;;;;;;26.27;55.63;100368.16;1690485;84;21188;-61
2021/06/14 09:21:43;;;;;;;5.12;2.40;;;;;;;26.35;55.92;100360.59;1715475;83;21944;-61
2021/06/14 09:25:14;;;;;;;6.65;2.40;;;;;;;26.46;55.72;100365.09;1715316;83;22007;-58
2021/06/14 09:28:21;;;;;;;3.50;2.08;;;;;;;26.55;53.55;100373.78;1711952;83;21188;-59
2021/06/14 09:31:29;;;;;;;3.42;1.98;;;;;;;26.62;53.07;100376.61;1708915;84;21234;-59
2021/06/14 09:34:53;;;;;;;4.90;2.22;;;;;;;26.70;52.18;100373.28;1700727;84;21282;-58
2021/06/14 09:38:07;;;;;;;2.72;1.75;;;;;;;26.72;51.73;100375.22;1711626;83;21702;-59
2021/06/14 09:41:22;;;;;;;4.78;2.25;;;;;;;26.74;50.34;100380.00;1711363;83;21785;-59
2021/06/14 09:44:38;;;;;;;1.87;1.47;;;;;;;26.78;50.39;100384.50;1710560;83;21223;-58
2021/06/14 09:47:44;;;;;;;2.95;1.77;;;;;;;26.89;50.35;100384.22;1702807;84;21192;-60
2021/06/14 09:50:51;;;;;;;3.37;1.70;;;;;;;27.00;49.68;100381.67;1711126;83;21769;-59
2021/06/14 09:53:59;;;;;;;3.05;1.92;;;;;;;27.11;49.39;100373.50;1709194;83;21577;-60
2021/06/14 09:57:08;;;;;;;2.98;2.00;;;;;;;27.24;49.69;100373.47;1711765;83;21231;-59
2021/06/14 10:00:22;;;;;;;3.92;2.05;;;;;;;27.36;49.84;100374.02;1689118;84;21831;-55
2021/06/14 10:03:35;;;;;;;3.62;1.70;;;;;;;27.48;47.90;100368.93;1687234;85;21226;-54
2021/06/14 10:06:46;;;;;;;;;;;;;;;27.59;47.88;100373.39;1715148;84;21852;-54
2021/06/14 10:10:02;;;;;;;1.70;1.60;;;;;;;27.68;46.19;100372.50;1712940;83;20275;-56
2021/06/14 10:13:09;;;;;;;2.30;1.60;;;;;;;27.81;46.89;100377.48;1710796;84;21219;-54
2021/06/14 10:16:25;;;;;;;2.05;1.85;;;;;;;27.91;46.33;100372.98;1683597;84;21223;-55
2021/06/14 10:19:33;;;;;;;6.92;2.40;;;;;;;27.89;46.33;100378.91;1702959;84;21236;-55
2021/06/14 10:22:40;;;;;;;4.62;2.08;;;;;;;27.74;46.25;100374.71;1691161;83;21271;-54
2021/06/14 10:25:47;;;;;;;2.05;1.50;;;;;;;27.74;47.71;100376.97;1705178;83;21331;-54
2021/06/14 10:28:55;;;;;;;4.28;1.80;;;;;;;27.86;46.91;100371.83;1677639;83;21211;-54
2021/06/14 10:32:02;;;;;;;3.77;2.42;;;;;;;27.99;45.01;100375.19;1676313;85;21217;-55
2021/06/14 10:35:08;;;;;;;6.05;2.33;;;;;;;28.05;44.84;100378.25;1677421;85;21280;-58
2021/06/14 10:38:14;;;;;;;2.00;1.62;;;;;;;28.16;44.14;100368.61;1675310;83;21214;-55
2021/06/14 10:41:20;;;;;;;2.98;1.67;;;;;;;28.28;43.05;100370.48;1683489;84;21794;-54
2021/06/14 10:44:25;;;;;;;2.75;1.70;;;;;;;28.39;43.69;100367.86;1677194;85;21282;-54
2021/06/14 10:47:31;;;;;;;4.60;1.90;;;;;;;28.48;43.63;100370.38;1677728;85;21198;-61
2021/06/14 10:50:39;;;;;;;3.85;2.15;;;;;;;28.57;44.37;100365.23;1677561;84;21328;-59
2021/06/14 10:53:52;;;;;;;2.80;1.80;;;;;;;28.71;43.59;100369.61;1674774;85;21194;-59
2021/06/14 10:56:58;;;;;;;2.33;1.85;;;;;;;28.81;43.63;100370.35;1677980;85;21738;-59
2021/06/14 11:00:03;;;;;;;3.67;2.10;;;;;;;28.93;43.76;100360.10;1668554;85;21226;-60
2021/06/14 11:03:15;;;;;;;3.72;1.90;;;;;;;29.08;43.08;100366.45;1676103;85;21231;-60
2021/06/14 11:06:32;;;;;;;5.92;1.90;;;;;;;29.20;43.41;100358.45;1686004;85;21304;-58
2021/06/14 11:09:47;;;;;;;4.92;1.90;;;;;;;29.34;44.20;100362.79;1693884;83;21246;-59
2021/06/14 11:12:53;;;;;;;6.50;2.10;;;;;;;29.43;43.99;100357.34;1700287;83;21205;-56
2021/06/14 11:16:06;;;;;;;5.35;1.90;;;;;;;29.56;43.78;100359.45;1701120;82;21277;-57
2021/06/14 11:19:13;;;;;;;;;;;;;;;29.66;43.81;100364.41;1706237;84;21865;-58
2021/06/14 11:22:18;;;;;;;3.50;2.00;;;;;;;29.73;43.21;100356.98;1689924;82;20641;-58
2021/06/14 11:25:33;;;;;;;6.65;1.70;;;;;;;29.79;42.40;100361.42;1694630;84;21222;-58
2021/06/14 11:28:49;;;;;;;3.98;1.70;;;;;;;30.06;41.73;100342.69;1681205;84;21848;-58
2021/06/14 11:32:05;;;;;;;2.25;1.77;;;;;;;30.06;41.73;100342.69;1671557;86;21233;-58
2021/06/14 11:35:13;;;;;;;2.25;1.57;;;;;;;30.15;41.79;100339.43;1672506;83;21273;-58
2021/06/14 11:38:27;;;;;;;3.40;1.90;;;;;;;30.15;41.79;100339.43;1679316;85;21221;-58
2021/06/14 11:41:36;;;;;;;4.28;1.98;;;;;;;30.07;42.46;100340.11;1670633;85;21238;-58
2021/06/14 11:44:41;;;;;;;2.58;1.57;;;;;;;30.05;41.22;100329.69;1669688;86;21245;-57
2021/06/14 11:47:48;;;;;;;2.12;1.50;;;;;;;30.10;41.90;100331.03;1678261;85;21254;-57
2021/06/14 11:50:58;;;;;;;6.33;1.75;;;;;;;30.12;41.52;100330.16;1678724;82;21865;-58
2021/06/14 11:54:04;;;;;;;2.15;1.57;;;;;;;30.15;41.50;100338.02;1708516;83;21209;-58
2021/06/14 11:57:13;;;;;;;4.05;1.65;;;;;;;30.27;41.71;100332.77;1708711;83;21270;-59
2021/06/14 12:00:39;;;;;;;2.80;1.50;;;;;;;30.40;41.28;100327.75;1708573;82;21757;-58
2021/06/14 12:03:45;;;;;;;4.08;1.50;;;;;;;30.48;41.80;100317.73;1709136;83;21803;-58
2021/06/14 12:06:56;;;;;;;6.75;1.90;;;;;;;30.61;41.71;100324.01;1708568;83;21190;-57
2021/06/14 12:10:05;;;;;;;2.72;1.30;;;;;;;30.77;41.51;100316.13;1708211;82;21897;-56
2021/06/14 12:13:19;;;;;;;4.17;1.40;;;;;;;30.81;39.66;100311.55;1708942;83;21304;-57
2021/06/14 12:16:32;;;;;;;2.72;1.37;;;;;;;30.83;39.25;100324.80;1708260;82;21352;-56
2021/06/14 12:19:44;;;;;;;2.37;1.40;;;;;;;30.80;38.94;100314.09;1708704;83;21781;-57
2021/06/14 12:22:52;;;;;;;5.90;1.70;;;;;;;30.80;39.28;100313.52;1693882;82;21217;-59
2021/06/14 12:26:00;;;;;;;2.55;1.37;;;;;;;30.73;39.52;100312.22;1708174;83;21261;-57
2021/06/14 12:29:05;;;;;;;4.75;1.60;;;;;;;30.57;38.98;100311.06;1707754;83;21759;-57
2021/06/14 12:32:16;;;;;;;1.70;1.27;;;;;;;30.43;39.24;100312.16;1708187;83;21774;-57
2021/06/14 12:35:22;;;;;;;4.70;2.08;;;;;;;30.36;39.27;100311.17;1708319;83;21225;-57
2021/06/14 12:38:30;;;;;;;2.08;1.30;;;;;;;30.22;40.42;100302.36;1654731;85;21245;-57
2021/06/14 12:41:37;;;;;;;1.45;1.30;;;;;;;30.18;39.91;100311.13;1685487;84;21253;-57
2021/06/14 12:44:44;;;;;;;5.03;1.50;;;;;;;30.11;40.45;100307.28;1708056;83;21233;-57
2021/06/14 12:48:03;;;;;;;6.30;1.62;;;;;;;30.04;40.42;100308.81;1708599;83;21774;-59
2021/06/14 12:51:08;;;;;;;4.12;1.85;;;;;;;29.97;40.28;100297.08;1707765;83;21233;-58
2021/06/14 12:54:15;;;;;;;4.42;1.42;;;;;;;29.88;40.19;100290.42;1707805;82;22080;-58
2021/06/14 12:57:24;;;;;;;4.12;1.70;;;;;;;29.85;40.56;100286.23;1707362;83;21201;-58
2021/06/14 13:00:36;;;;;;;2.12;1.37;;;;;;;29.73;40.17;100288.66;1683716;83;21295;-58
2021/06/14 13:03:45;;;;;;;2.33;1.57;;;;;;;29.67;41.17;100284.23;1679674;85;21241;-57
2021/06/14 13:06:51;;;;;;;2.50;1.50;;;;;;;29.66;41.39;100291.03;1693882;84;21222;-58
2021/06/14 13:10:00;;;;;;;5.45;1.80;;;;;;;29.66;41.39;100291.03;1703614;84;21277;-59
2021/06/14 13:13:25;;;;;;;2.98;1.55;;;;;;;29.65;41.19;100293.59;1707266;84;21331;-59
2021/06/14 13:16:32;;;;;;;3.95;1.50;;;;;;;29.68;41.68;100291.58;1664844;84;21786;-58
2021/06/14 13:19:40;;;;;;;4.10;1.60;;;;;;;29.64;41.25;100290.48;1674385;81;21292;-57
2021/06/14 13:22:51;;;;;;;4.78;1.32;;;;;;;29.64;41.25;100290.48;1709372;84;21499;-60
2021/06/14 13:26:07;;;;;;;3.90;1.52;;;;;;;29.55;41.50;100289.46;1711307;84;21268;-59
2021/06/14 13:29:31;;;;;;;3.30;1.67;;;;;;;29.54;42.75;100293.44;1664673;86;21405;-59
2021/06/14 13:32:46;;;;;;;8.35;1.62;;;;;;;29.29;43.02;100290.09;1710540;83;21924;-58
2021/06/14 13:35:46;;;;;;;2.37;1.60;;;;;;;29.29;43.02;100290.09;1682030;83;21245;-60
2021/06/14 13:38:55;;;;;;;4.67;1.80;;;;;;;29.33;43.10;100287.78;1670966;84;21777;-59
2021/06/14 13:42:11;;;;;;;3.58;1.52;;;;;;;29.37;42.66;100295.89;1684006;85;21483;-61
2021/06/14 13:45:22;;;;;;;4.75;1.92;;;;;;;29.45;43.16;100289.59;1684350;85;21263;-59
2021/06/14 13:48:28;;;;;;;3.62;1.72;;;;;;;29.53;41.59;100281.86;1684185;85;21233;-60
2021/06/14 13:51:34;;;;;;;3.08;1.77;;;;;;;29.58;42.34;100285.18;1684064;85;21871;-60
2021/06/14 13:54:39;;;;;;;2.52;1.70;;;;;;;29.58;42.34;100285.18;1698071;84;21223;-57
2021/06/14 13:57:50;;;;;;;2.12;1.50;;;;;;;29.62;41.71;100289.91;1683886;85;21188;-57
2021/06/14 14:00:55;;;;;;;1.75;1.57;;;;;;;29.67;41.45;100282.82;1670384;85;21585;-58
2021/06/14 14:04:12;;;;;;;6.70;2.02;;;;;;;29.66;42.34;100284.53;1686391;84;21205;-59
2021/06/14 14:07:21;;;;;;;3.60;1.77;;;;;;;29.73;42.38;100285.02;1696575;84;21813;-57
2021/06/14 14:10:27;;;;;;;3.42;1.60;;;;;;;29.86;42.33;100287.09;1683057;85;21264;-59
2021/06/14 14:13:31;;;;;;;2.00;1.55;;;;;;;30.11;42.95;100288.92;1655261;86;21244;-60
2021/06/14 14:16:39;;;;;;;3.60;1.65;;;;;;;30.11;42.95;100288.92;1680264;84;21226;-58
2021/06/14 14:19:51;;;;;;;5.70;1.50;;;;;;;30.20;41.55;100290.48;1658073;85;21717;-56
2021/06/14 14:22:57;;;;;;;4.58;1.67;;;;;;;30.07;41.22;100292.11;1681658;85;21217;-57
2021/06/14 14:26:03;;;;;;;3.30;1.70;;;;;;;29.89;41.96;100287.29;1656786;86;21259;-60
2021/06/14 14:29:09;;;;;;;5.47;1.98;;;;;;;29.88;42.33;100288.45;1646126;86;21752;-59
2021/06/14 14:32:15;;;;;;;9.28;1.90;;;;;;;29.90;42.16;100281.08;1677827;85;21797;-59
2021/06/14 14:35:26;;;;;;;2.08;1.37;;;;;;;29.89;41.72;100280.83;1657577;86;21283;-60